createdAt,value
2023-10-14T00:02:22.430Z,100.00
2023-10-14T00:04:49.697Z,100.00
2023-10-14T00:07:18.996Z,100.00
2023-10-14T00:09:45.754Z,100.00
2023-10-14T00:12:15.796Z,100.00
2023-10-14T00:14:46.233Z,100.00
2023-10-14T00:17:18.270Z,100.00
2023-10-14T00:19:50.880Z,100.00
2023-10-14T00:22:19.505Z,100.00
2023-10-14T00:24:49.532Z,100.00
2023-10-14T00:27:16.148Z,100.00
2023-10-14T00:29:43.080Z,100.00
2023-10-14T00:32:10.107Z,100.00
2023-10-14T00:34:36.647Z,100.00
2023-10-14T00:37:03.237Z,100.00
2023-10-14T00:39:31.785Z,100.00
2023-10-14T00:41:59.641Z,100.00
2023-10-14T00:44:27.178Z,100.00
2023-10-14T00:46:55.726Z,100.00
2023-10-14T00:49:24.687Z,100.00
2023-10-14T00:51:58.543Z,100.00
2023-10-14T00:54:37.784Z,100.00
2023-10-14T00:57:30.885Z,100.00
2023-10-14T00:59:57.489Z,100.00
2023-10-14T01:02:34.690Z,100.00
2023-10-14T01:05:08.567Z,100.00
2023-10-14T01:07:35.279Z,100.00
2023-10-14T01:10:02.979Z,100.00
2023-10-14T01:12:40.274Z,100.00
2023-10-14T01:15:23.371Z,100.00
2023-10-14T01:17:55.051Z,100.00
2023-10-14T01:20:21.939Z,100.00
2023-10-14T01:22:56.024Z,100.00
2023-10-14T01:25:26.963Z,100.00
2023-10-14T01:27:53.904Z,100.00
2023-10-14T01:30:26.843Z,100.00
2023-10-14T01:33:00.863Z,100.00
2023-10-14T01:35:33.410Z,100.00
2023-10-14T01:38:01.548Z,100.00
2023-10-14T01:40:37.138Z,100.00
2023-10-14T01:43:09.230Z,100.00
2023-10-14T01:45:41.254Z,100.00
2023-10-14T01:48:12.035Z,100.00
2023-10-14T01:50:42.156Z,100.00
2023-10-14T01:53:12.434Z,100.00
2023-10-14T01:55:42.826Z,100.00
2023-10-14T01:58:31.660Z,100.00
2023-10-14T02:01:08.644Z,100.00
2023-10-14T02:04:08.154Z,100.00
2023-10-14T02:06:34.806Z,100.00
2023-10-14T02:09:01.667Z,100.00
2023-10-14T02:11:34.363Z,100.00
2023-10-14T02:14:09.748Z,100.00
2023-10-14T02:16:42.457Z,100.00
2023-10-14T02:19:19.891Z,100.00
2023-10-14T02:21:49.301Z,100.00
2023-10-14T02:24:16.315Z,100.00
2023-10-14T02:26:43.034Z,100.00
2023-10-14T02:29:11.747Z,100.00
2023-10-14T02:31:38.428Z,100.00
2023-10-14T02:34:07.584Z,100.00
2023-10-14T02:36:42.923Z,100.00
2023-10-14T02:39:13.654Z,100.00
2023-10-14T02:41:41.618Z,100.00
2023-10-14T02:44:08.276Z,100.00
2023-10-14T02:46:48.567Z,100.00
2023-10-14T02:49:16.320Z,100.00
2023-10-14T02:51:44.635Z,100.00
2023-10-14T02:54:28.095Z,100.00
2023-10-14T02:57:01.624Z,100.00
2023-10-14T02:59:45.663Z,100.00
2023-10-14T03:02:14.173Z,100.00
2023-10-14T03:04:52.981Z,100.00
2023-10-14T03:07:34.876Z,100.00
2023-10-14T03:10:21.130Z,100.00
2023-10-14T03:12:50.452Z,100.00
2023-10-14T03:15:22.638Z,100.00
2023-10-14T03:17:57.629Z,100.00
2023-10-14T03:20:35.698Z,100.00
2023-10-14T03:23:20.791Z,100.00
2023-10-14T03:25:51.158Z,100.00
2023-10-14T03:28:22.714Z,100.00
2023-10-14T03:30:57.919Z,100.00
2023-10-14T03:33:33.995Z,100.00
2023-10-14T03:36:07.346Z,100.00
2023-10-14T03:38:38.077Z,100.00
2023-10-14T03:41:12.478Z,100.00
2023-10-14T03:44:00.400Z,100.00
2023-10-14T03:46:35.696Z,100.00
2023-10-14T03:49:21.671Z,100.00
2023-10-14T03:51:52.057Z,100.00
2023-10-14T03:54:25.052Z,100.00
2023-10-14T03:56:51.872Z,100.00
2023-10-14T03:59:22.292Z,100.00
2023-10-14T04:01:55.772Z,100.00
2023-10-14T04:04:28.358Z,100.00
2023-10-14T04:07:02.819Z,100.00
2023-10-14T04:09:40.068Z,100.00
2023-10-14T04:12:13.278Z,100.00
2023-10-14T04:14:41.915Z,100.00
2023-10-14T04:17:30.387Z,100.00
2023-10-14T04:20:10.149Z,100.00
2023-10-14T04:22:40.481Z,100.00
2023-10-14T04:25:12.338Z,100.00
2023-10-14T04:27:47.559Z,100.00
2023-10-14T04:30:27.623Z,100.00
2023-10-14T04:32:57.118Z,100.00
2023-10-14T04:35:27.211Z,100.00
2023-10-14T04:37:55.116Z,100.00
2023-10-14T04:40:35.852Z,100.00
2023-10-14T04:43:19.673Z,100.00
2023-10-14T04:46:10.129Z,100.00
2023-10-14T04:48:38.350Z,100.00
2023-10-14T04:51:17.020Z,100.00
2023-10-14T04:53:51.078Z,100.00
2023-10-14T04:56:24.330Z,100.00
2023-10-14T04:58:54.215Z,100.00
2023-10-14T05:01:25.614Z,100.00
2023-10-14T05:03:58.507Z,100.00
2023-10-14T05:06:30.585Z,100.00
2023-10-14T05:08:57.776Z,100.00
2023-10-14T05:11:26.928Z,100.00
2023-10-14T05:14:10.442Z,100.00
2023-10-14T05:16:53.582Z,100.00
2023-10-14T05:19:39.496Z,100.00
2023-10-14T05:22:19.904Z,100.00
2023-10-14T05:24:50.808Z,100.00
2023-10-14T05:27:22.364Z,100.00
2023-10-14T05:29:53.138Z,100.00
2023-10-14T05:32:25.037Z,100.00
2023-10-14T05:34:53.094Z,100.00
2023-10-14T05:37:22.780Z,100.00
2023-10-14T05:39:51.987Z,100.00
2023-10-14T05:42:22.255Z,100.00
2023-10-14T05:44:58.876Z,100.00
2023-10-14T05:47:32.741Z,100.00
2023-10-14T05:49:59.423Z,100.00
2023-10-14T05:52:26.398Z,100.00
2023-10-14T05:54:53.097Z,100.00
2023-10-14T05:57:21.186Z,100.00
2023-10-14T05:59:49.849Z,100.00
2023-10-14T06:02:16.488Z,100.00
2023-10-14T06:04:43.192Z,100.00
2023-10-14T06:07:12.585Z,100.00
2023-10-14T06:09:40.106Z,100.00
2023-10-14T06:12:17.550Z,100.00
2023-10-14T06:14:46.382Z,100.00
2023-10-14T06:17:15.125Z,100.00
2023-10-14T06:19:42.371Z,100.00
2023-10-14T06:22:09.112Z,100.00
2023-10-14T06:24:36.195Z,100.00
2023-10-14T06:27:09.606Z,100.00
2023-10-14T06:29:37.661Z,100.00
2023-10-14T06:32:18.764Z,100.00
2023-10-14T06:34:48.929Z,100.00
2023-10-14T06:37:15.891Z,100.00
2023-10-14T06:39:43.074Z,100.00
2023-10-14T06:42:09.634Z,100.00
2023-10-14T06:44:37.523Z,100.00
2023-10-14T06:47:04.358Z,100.00
2023-10-14T06:49:33.941Z,100.00
2023-10-14T06:52:00.798Z,100.00
2023-10-14T06:54:27.400Z,100.00
2023-10-14T06:56:54.622Z,100.00
2023-10-14T06:59:21.989Z,100.00
2023-10-14T07:01:49.050Z,100.00
2023-10-14T07:04:17.873Z,100.00
2023-10-14T07:06:50.646Z,100.00
2023-10-14T07:09:20.959Z,100.00
2023-10-14T07:11:48.171Z,100.00
2023-10-14T07:14:14.767Z,100.00
2023-10-14T07:16:44.029Z,100.00
2023-10-14T07:19:12.356Z,100.00
2023-10-14T07:21:39.578Z,100.00
2023-10-14T07:24:09.223Z,100.00
2023-10-14T07:26:40.526Z,100.00
2023-10-14T07:29:07.489Z,100.00
2023-10-14T07:31:37.754Z,100.00
2023-10-14T07:34:06.121Z,100.00
2023-10-14T07:36:32.793Z,100.00
2023-10-14T07:39:25.400Z,100.00
2023-10-14T07:41:53.600Z,100.00
2023-10-14T07:44:21.207Z,100.00
2023-10-14T07:46:48.255Z,100.00
2023-10-14T07:49:15.253Z,100.00
2023-10-14T07:51:43.743Z,100.00
2023-10-14T07:54:10.302Z,100.00
2023-10-14T07:56:36.829Z,100.00
2023-10-14T07:59:03.379Z,100.00
2023-10-14T08:01:32.394Z,100.00
2023-10-14T08:03:59.354Z,99.84
2023-10-14T08:06:26.860Z,93.13
2023-10-14T08:08:53.324Z,91.95
2023-10-14T08:11:19.830Z,89.33
2023-10-14T08:13:46.417Z,85.16
2023-10-14T08:16:13.481Z,79.24
2023-10-14T08:18:43.168Z,79.33
2023-10-14T08:21:10.741Z,77.79
2023-10-14T08:23:37.485Z,73.70
2023-10-14T08:26:04.578Z,75.49
2023-10-14T08:28:34.113Z,70.48
2023-10-14T08:31:00.735Z,68.87
2023-10-14T08:33:32.266Z,71.45
2023-10-14T08:36:02.247Z,67.02
2023-10-14T08:38:30.725Z,66.28
2023-10-14T08:41:09.822Z,66.56
2023-10-14T08:43:38.135Z,68.59
2023-10-14T08:46:12.048Z,70.42
2023-10-14T08:48:40.943Z,64.57
2023-10-14T08:51:09.824Z,67.95
2023-10-14T08:53:41.370Z,61.32
2023-10-14T08:56:09.112Z,62.14
2023-10-14T08:58:39.811Z,59.89
2023-10-14T09:01:13.537Z,57.77
2023-10-14T09:03:40.184Z,65.08
2023-10-14T09:06:08.100Z,59.21
2023-10-14T09:08:37.432Z,60.23
2023-10-14T09:11:04.862Z,57.13
2023-10-14T09:13:34.794Z,58.50
2023-10-14T09:16:01.330Z,55.36
2023-10-14T09:18:31.611Z,56.41
2023-10-14T09:21:01.921Z,61.31
2023-10-14T09:23:33.973Z,54.38
2023-10-14T09:26:02.092Z,56.04
2023-10-14T09:28:36.819Z,55.57
2023-10-14T09:31:11.647Z,55.35
2023-10-14T09:33:46.133Z,58.88
2023-10-14T09:36:19.885Z,54.10
2023-10-14T09:38:49.781Z,51.19
2023-10-14T09:41:16.903Z,53.97
2023-10-14T09:43:44.522Z,55.74
2023-10-14T09:46:18.555Z,58.74
2023-10-14T09:48:46.867Z,58.16
2023-10-14T09:51:16.619Z,63.13
2023-10-14T09:53:49.779Z,64.07
2023-10-14T09:56:23.063Z,62.66
2023-10-14T09:58:57.820Z,66.55
2023-10-14T10:01:25.715Z,66.21
2023-10-14T10:04:04.503Z,70.31
2023-10-14T10:07:08.277Z,71.48
2023-10-14T10:09:50.566Z,66.85
2023-10-14T10:12:18.898Z,66.82
2023-10-14T10:14:46.360Z,58.10
2023-10-14T10:17:15.983Z,60.54
2023-10-14T10:20:01.523Z,63.87
2023-10-14T10:22:42.714Z,62.70
2023-10-14T10:25:15.739Z,57.05
2023-10-14T10:27:44.839Z,57.27
2023-10-14T10:30:16.870Z,56.02
2023-10-14T10:32:48.034Z,52.46
2023-10-14T10:35:17.666Z,56.21
2023-10-14T10:37:52.584Z,56.64
2023-10-14T10:40:27.212Z,59.40
2023-10-14T10:42:58.953Z,60.36
2023-10-14T10:45:34.463Z,59.61
2023-10-14T10:48:05.500Z,60.54
2023-10-14T10:50:38.095Z,62.47
2023-10-14T10:53:11.772Z,61.45
2023-10-14T10:55:42.645Z,63.96
2023-10-14T10:58:12.797Z,62.96
2023-10-14T11:00:41.541Z,62.04
2023-10-14T11:03:08.602Z,58.83
2023-10-14T11:05:37.095Z,56.58
2023-10-14T11:08:07.189Z,54.58
2023-10-14T11:10:35.411Z,52.40
2023-10-14T11:13:02.202Z,49.57
2023-10-14T11:15:33.137Z,50.50
2023-10-14T11:18:01.291Z,53.49
2023-10-14T11:20:34.080Z,51.04
2023-10-14T11:23:04.582Z,48.03
2023-10-14T11:25:36.470Z,47.80
2023-10-14T11:28:06.308Z,45.74
2023-10-14T11:30:33.100Z,45.49
2023-10-14T11:33:02.913Z,45.54
2023-10-14T11:35:30.067Z,44.65
2023-10-14T11:38:03.757Z,46.43
2023-10-14T11:40:39.702Z,47.31
2023-10-14T11:43:06.994Z,44.89
2023-10-14T11:45:34.307Z,46.94
2023-10-14T11:48:01.466Z,50.80
2023-10-14T11:50:31.419Z,52.27
2023-10-14T11:52:58.995Z,56.14
2023-10-14T11:55:27.152Z,56.58
2023-10-14T11:57:56.496Z,51.71
2023-10-14T12:00:24.166Z,49.26
2023-10-14T12:02:51.835Z,50.25
2023-10-14T12:05:18.668Z,50.29
2023-10-14T12:07:45.864Z,52.44
2023-10-14T12:10:15.346Z,52.67
2023-10-14T12:12:41.983Z,52.97
2023-10-14T12:15:10.299Z,55.11
2023-10-14T12:17:38.118Z,56.50
2023-10-14T12:20:11.692Z,53.44
2023-10-14T12:22:42.941Z,49.82
2023-10-14T12:25:10.842Z,51.54
2023-10-14T12:27:37.434Z,51.03
2023-10-14T12:30:07.826Z,50.91
2023-10-14T12:32:34.586Z,53.70
2023-10-14T12:35:01.207Z,54.64
2023-10-14T12:37:30.000Z,58.57
2023-10-14T12:40:05.882Z,58.34
2023-10-14T12:42:46.461Z,59.76
2023-10-14T12:45:23.940Z,59.95
2023-10-14T12:47:57.026Z,58.73
2023-10-14T12:50:24.576Z,61.71
2023-10-14T12:53:05.743Z,64.56
2023-10-14T12:55:32.945Z,66.63
2023-10-14T12:58:01.250Z,67.36
2023-10-14T13:00:32.943Z,66.25
2023-10-14T13:03:00.755Z,68.77
2023-10-14T13:05:28.736Z,66.35
2023-10-14T13:07:57.015Z,68.15
2023-10-14T13:10:24.978Z,68.96
2023-10-14T13:12:54.525Z,69.01
2023-10-14T13:15:28.980Z,69.40
2023-10-14T13:18:00.734Z,68.13
2023-10-14T13:20:31.361Z,68.24
2023-10-14T13:23:05.632Z,68.74
2023-10-14T13:25:39.264Z,60.39
2023-10-14T13:28:11.300Z,63.07
2023-10-14T13:30:41.048Z,64.38
2023-10-14T13:33:07.655Z,64.50
2023-10-14T13:35:35.928Z,65.64
2023-10-14T13:38:02.555Z,68.86
2023-10-14T13:40:40.366Z,68.59
2023-10-14T13:43:16.898Z,68.75
2023-10-14T13:45:44.141Z,69.18
2023-10-14T13:48:13.682Z,69.32
2023-10-14T13:50:42.806Z,69.68
2023-10-14T13:53:18.526Z,69.42
2023-10-14T13:55:47.500Z,70.07
2023-10-14T13:58:14.104Z,69.14
2023-10-14T14:00:41.596Z,69.35
2023-10-14T14:03:18.970Z,69.01
2023-10-14T14:05:52.639Z,68.25
2023-10-14T14:08:30.659Z,69.89
2023-10-14T14:11:07.141Z,69.09
2023-10-14T14:13:34.166Z,68.16
2023-10-14T14:16:03.864Z,69.18
2023-10-14T14:18:31.196Z,70.07
2023-10-14T14:20:57.760Z,70.12
2023-10-14T14:23:24.466Z,69.23
2023-10-14T14:25:51.297Z,69.87
2023-10-14T14:28:19.631Z,70.20
2023-10-14T14:30:50.933Z,69.76
2023-10-14T14:33:26.612Z,70.77
2023-10-14T14:35:53.229Z,70.27
2023-10-14T14:38:22.265Z,70.43
2023-10-14T14:40:49.919Z,69.70
2023-10-14T14:43:16.428Z,67.88
2023-10-14T14:45:46.231Z,68.92
2023-10-14T14:48:13.029Z,67.54
2023-10-14T14:50:45.632Z,67.70
2023-10-14T14:53:13.324Z,68.68
2023-10-14T14:55:42.891Z,67.01
2023-10-14T14:58:11.400Z,64.94
2023-10-14T15:00:42.996Z,65.16
2023-10-14T15:03:12.964Z,66.91
2023-10-14T15:05:46.200Z,65.41
2023-10-14T15:08:18.742Z,63.38
2023-10-14T15:10:48.126Z,63.79
2023-10-14T15:13:17.593Z,62.51
2023-10-14T15:15:45.048Z,62.75
2023-10-14T15:18:15.019Z,63.58
2023-10-14T15:20:41.677Z,63.86
2023-10-14T15:23:11.203Z,63.03
2023-10-14T15:25:38.291Z,63.70
2023-10-14T15:28:12.469Z,63.82
2023-10-14T15:30:41.936Z,62.68
2023-10-14T15:33:08.911Z,63.77
2023-10-14T15:35:35.990Z,63.37
2023-10-14T15:38:05.871Z,63.26
2023-10-14T15:40:37.045Z,65.78
2023-10-14T15:43:08.660Z,65.19
2023-10-14T15:45:38.087Z,64.48
2023-10-14T15:48:10.613Z,64.85
2023-10-14T15:50:46.185Z,64.26
2023-10-14T15:53:22.385Z,64.64
2023-10-14T15:55:52.795Z,64.73
2023-10-14T15:58:34.732Z,63.43
2023-10-14T16:01:08.830Z,63.66
2023-10-14T16:03:37.364Z,63.77
2023-10-14T16:06:05.197Z,64.35
2023-10-14T16:08:35.347Z,63.44
2023-10-14T16:11:01.856Z,64.85
2023-10-14T16:13:28.877Z,64.25
2023-10-14T16:15:56.953Z,66.02
2023-10-14T16:18:25.031Z,64.81
2023-10-14T16:20:52.723Z,66.22
2023-10-14T16:23:19.576Z,66.42
2023-10-14T16:25:46.129Z,67.36
2023-10-14T16:28:16.789Z,66.94
2023-10-14T16:30:45.305Z,67.41
2023-10-14T16:33:12.438Z,66.12
2023-10-14T16:35:42.165Z,67.17
2023-10-14T16:38:11.585Z,66.91
2023-10-14T16:40:38.370Z,66.89
2023-10-14T16:43:06.493Z,68.86
2023-10-14T16:45:36.891Z,69.26
2023-10-14T16:48:13.787Z,69.07
2023-10-14T16:50:44.622Z,69.50
2023-10-14T16:53:12.744Z,69.33
2023-10-14T16:55:40.069Z,68.16
2023-10-14T16:58:09.496Z,68.64
2023-10-14T17:00:36.137Z,70.19
2023-10-14T17:03:04.772Z,69.53
2023-10-14T17:05:32.447Z,69.34
2023-10-14T17:08:04.456Z,69.94
2023-10-14T17:10:33.262Z,70.62
2023-10-14T17:13:02.410Z,70.91
2023-10-14T17:15:29.632Z,70.95
2023-10-14T17:18:01.160Z,71.00
2023-10-14T17:20:29.100Z,71.69
2023-10-14T17:22:58.343Z,72.12
2023-10-14T17:25:30.125Z,71.19
2023-10-14T17:27:58.724Z,71.58
2023-10-14T17:30:28.391Z,73.32
2023-10-14T17:33:06.705Z,73.64
2023-10-14T17:35:34.097Z,73.94
2023-10-14T17:38:02.569Z,74.71
2023-10-14T17:40:31.328Z,74.20
2023-10-14T17:43:06.204Z,73.89
2023-10-14T17:45:36.160Z,74.16
2023-10-14T17:48:07.506Z,74.65
2023-10-14T17:50:35.859Z,73.50
2023-10-14T17:53:14.739Z,75.15
2023-10-14T17:55:46.209Z,74.83
2023-10-14T17:58:14.094Z,75.00
2023-10-14T18:00:42.979Z,75.22
2023-10-14T18:03:14.268Z,75.90
2023-10-14T18:05:47.236Z,76.24
2023-10-14T18:08:15.053Z,76.69
2023-10-14T18:10:42.588Z,76.99
2023-10-14T18:13:09.718Z,76.83
2023-10-14T18:15:37.161Z,78.14
2023-10-14T18:18:07.043Z,78.24
2023-10-14T18:20:36.870Z,78.40
2023-10-14T18:23:07.522Z,77.89
2023-10-14T18:25:39.756Z,78.20
2023-10-14T18:28:08.444Z,78.64
2023-10-14T18:30:43.662Z,78.79
2023-10-14T18:33:12.033Z,79.20
2023-10-14T18:35:40.293Z,78.89
2023-10-14T18:38:11.700Z,78.88
2023-10-14T18:40:39.116Z,79.38
2023-10-14T18:43:09.752Z,79.09
2023-10-14T18:45:36.873Z,79.19
2023-10-14T18:48:11.050Z,79.26
2023-10-14T18:50:40.137Z,78.92
2023-10-14T18:53:09.976Z,79.80
2023-10-14T18:55:43.975Z,79.85
2023-10-14T18:58:12.661Z,79.66
2023-10-14T19:00:46.312Z,80.05
2023-10-14T19:03:15.477Z,79.84
2023-10-14T19:05:43.522Z,79.91
2023-10-14T19:08:11.839Z,80.48
2023-10-14T19:10:48.911Z,80.01
2023-10-14T19:13:30.880Z,80.83
2023-10-14T19:15:57.683Z,80.37
2023-10-14T19:18:24.173Z,80.74
2023-10-14T19:20:50.795Z,81.40
2023-10-14T19:23:24.815Z,80.66
2023-10-14T19:25:52.269Z,81.55
2023-10-14T19:28:24.753Z,81.38
2023-10-14T19:31:01.322Z,81.69
2023-10-14T19:33:28.098Z,81.60
2023-10-14T19:35:57.421Z,81.59
2023-10-14T19:38:24.596Z,82.20
2023-10-14T19:41:03.708Z,82.96
2023-10-14T19:43:34.144Z,82.37
2023-10-14T19:46:01.817Z,82.36
2023-10-14T19:48:28.602Z,82.82
2023-10-14T19:50:55.560Z,82.80
2023-10-14T19:53:27.619Z,83.41
2023-10-14T19:55:55.657Z,83.82
2023-10-14T19:58:22.257Z,84.16
2023-10-14T20:00:50.544Z,84.46
2023-10-14T20:03:20.624Z,84.24
2023-10-14T20:05:47.875Z,84.35
2023-10-14T20:08:20.624Z,84.51
2023-10-14T20:10:47.603Z,84.91
2023-10-14T20:13:20.063Z,84.59
2023-10-14T20:15:48.634Z,85.53
2023-10-14T20:18:20.607Z,85.37
2023-10-14T20:20:50.294Z,85.62
2023-10-14T20:23:18.631Z,85.61
2023-10-14T20:25:48.368Z,86.11
2023-10-14T20:28:15.711Z,86.24
2023-10-14T20:30:47.038Z,85.72
2023-10-14T20:33:18.608Z,86.45
2023-10-14T20:35:46.138Z,86.54
2023-10-14T20:38:13.831Z,86.17
2023-10-14T20:40:42.303Z,86.45
2023-10-14T20:43:09.274Z,86.10
2023-10-14T20:45:38.368Z,86.81
2023-10-14T20:48:05.760Z,86.96
2023-10-14T20:50:33.695Z,87.21
2023-10-14T20:53:00.451Z,87.64
2023-10-14T20:55:29.613Z,87.78
2023-10-14T20:58:05.212Z,87.57
2023-10-14T21:00:35.865Z,88.17
2023-10-14T21:03:11.065Z,88.34
2023-10-14T21:05:43.551Z,88.43
2023-10-14T21:08:17.251Z,88.28
2023-10-14T21:10:48.386Z,88.06
2023-10-14T21:13:20.936Z,88.31
2023-10-14T21:15:50.194Z,87.21
2023-10-14T21:18:19.675Z,87.36
2023-10-14T21:20:48.112Z,86.51
2023-10-14T21:23:21.353Z,86.64
2023-10-14T21:25:55.162Z,87.83
2023-10-14T21:28:22.112Z,87.21
2023-10-14T21:30:51.825Z,88.22
2023-10-14T21:33:22.444Z,88.09
2023-10-14T21:35:50.145Z,87.65
2023-10-14T21:38:16.990Z,87.10
2023-10-14T21:40:44.288Z,86.96
2023-10-14T21:43:10.928Z,86.59
2023-10-14T21:45:37.698Z,86.32
2023-10-14T21:48:09.136Z,86.88
2023-10-14T21:50:36.865Z,87.67
2023-10-14T21:53:07.508Z,87.08
2023-10-14T21:55:42.162Z,88.06
2023-10-14T21:58:09.230Z,90.70
2023-10-14T22:00:40.701Z,92.07
2023-10-14T22:03:09.314Z,93.31
2023-10-14T22:05:37.544Z,94.98
2023-10-14T22:08:06.325Z,96.16
2023-10-14T22:10:33.606Z,97.15
2023-10-14T22:13:01.464Z,97.78
2023-10-14T22:15:30.628Z,98.73
2023-10-14T22:18:01.195Z,99.30
2023-10-14T22:20:31.469Z,99.90
2023-10-14T22:23:04.798Z,99.46
2023-10-14T22:25:35.492Z,100.00
2023-10-14T22:28:07.873Z,100.00
2023-10-14T22:30:36.037Z,100.00
2023-10-14T22:33:04.521Z,100.00
2023-10-14T22:35:32.450Z,100.00
2023-10-14T22:37:59.045Z,100.00
2023-10-14T22:40:25.842Z,100.00
2023-10-14T22:42:56.923Z,100.00
2023-10-14T22:45:44.610Z,100.00
2023-10-14T22:48:12.156Z,100.00
2023-10-14T22:50:38.859Z,100.00
2023-10-14T22:53:05.513Z,100.00
2023-10-14T22:55:35.122Z,100.00
2023-10-14T22:58:02.210Z,100.00
2023-10-14T23:00:30.757Z,100.00
2023-10-14T23:02:57.887Z,100.00
2023-10-14T23:05:30.044Z,100.00
2023-10-14T23:07:59.928Z,100.00
2023-10-14T23:10:30.711Z,100.00
2023-10-14T23:12:58.035Z,100.00
2023-10-14T23:15:30.961Z,100.00
2023-10-14T23:18:01.822Z,100.00
2023-10-14T23:20:29.116Z,100.00
2023-10-14T23:22:58.187Z,100.00
2023-10-14T23:25:25.750Z,100.00
2023-10-14T23:27:54.158Z,100.00
2023-10-14T23:30:23.055Z,100.00
2023-10-14T23:32:56.978Z,100.00
2023-10-14T23:35:28.138Z,100.00
2023-10-14T23:37:59.955Z,100.00
2023-10-14T23:40:31.222Z,100.00
2023-10-14T23:43:03.428Z,100.00
2023-10-14T23:45:33.827Z,100.00
2023-10-14T23:48:03.372Z,100.00
2023-10-14T23:50:36.685Z,100.00
2023-10-14T23:53:04.109Z,100.00
2023-10-14T23:55:30.795Z,100.00
2023-10-14T23:57:57.757Z,100.00
